createdAt,value
2019-04-23T00:01:23.830Z,31.27
2019-04-23T00:04:00.939Z,31.54
2019-04-23T00:06:21.788Z,31.81
2019-04-23T00:08:55.873Z,31.77
2019-04-23T00:11:19.385Z,31.91
2019-04-23T00:13:49.978Z,31.86
2019-04-23T00:16:26.459Z,32.34
2019-04-23T00:18:53.719Z,32.63
2019-04-23T00:24:17.527Z,32.77
2019-04-23T00:29:15.014Z,33.33
2019-04-23T00:31:44.536Z,33.90
2019-04-23T00:34:30.811Z,33.81
2019-04-23T00:36:44.804Z,33.86
2019-04-23T00:39:15.322Z,33.92
2019-04-23T00:41:55.008Z,34.20
2019-04-23T00:44:26.951Z,34.02
2019-04-23T00:46:50.708Z,34.14
2019-04-23T00:49:25.235Z,34.30
2019-04-23T00:51:49.910Z,34.42
2019-04-23T00:54:46.847Z,34.66
2019-04-23T00:59:27.014Z,35.13
2019-04-23T01:01:55.791Z,34.97
2019-04-23T01:04:31.643Z,34.92
2019-04-23T01:07:01.017Z,35.02
2019-04-23T01:09:31.175Z,35.18
2019-04-23T01:12:06.368Z,34.96
2019-04-23T01:14:36.043Z,35.17
2019-04-23T01:17:08.482Z,35.24
2019-04-23T01:19:43.800Z,35.28
2019-04-23T01:21:55.734Z,35.33
2019-04-23T01:24:30.701Z,35.24
2019-04-23T01:30:11.396Z,35.20
2019-04-23T01:32:36.776Z,35.45
2019-04-23T01:37:41.178Z,35.71
2019-04-23T01:45:19.809Z,35.62
2019-04-23T01:50:21.907Z,35.86
2019-04-23T01:52:55.122Z,35.64
2019-04-23T01:55:29.636Z,35.67
2019-04-23T01:58:06.983Z,35.77
2019-04-23T02:00:22.329Z,36.15
2019-04-23T02:02:57.522Z,35.97
2019-04-23T02:05:32.579Z,36.17
2019-04-23T02:08:01.492Z,36.34
2019-04-23T02:13:03.837Z,36.27
2019-04-23T02:15:31.273Z,36.01
2019-04-23T02:18:08.494Z,36.28
2019-04-23T02:20:41.024Z,35.80
2019-04-23T02:23:18.337Z,36.22
2019-04-23T02:28:22.662Z,36.68
2019-04-23T02:33:45.084Z,36.19
2019-04-23T02:38:40.157Z,36.33
2019-04-23T02:43:22.252Z,36.51
2019-04-23T02:48:30.737Z,36.38
2019-04-23T02:51:05.022Z,36.65
2019-04-23T02:53:44.854Z,36.74
2019-04-23T02:56:10.560Z,36.76
2019-04-23T03:01:19.379Z,36.70
2019-04-23T03:08:53.005Z,37.46
2019-04-23T03:14:04.259Z,37.41
2019-04-23T03:19:02.605Z,37.61
2019-04-23T03:22:01.339Z,38.13
2019-04-23T03:24:33.436Z,38.13
2019-04-23T03:27:18.797Z,38.05
2019-04-23T03:29:37.819Z,38.26
2019-04-23T03:35:09.051Z,38.51
2019-04-23T03:39:40.197Z,38.89
2019-04-23T03:41:59.685Z,38.38
2019-04-23T03:44:37.728Z,38.51
2019-04-23T03:47:04.150Z,38.78
2019-04-23T03:52:13.635Z,39.05
2019-04-23T04:07:18.548Z,40.02
2019-04-23T04:09:47.725Z,39.62
2019-04-23T04:12:25.067Z,40.01
2019-04-23T04:17:26.806Z,40.16
2019-04-23T04:19:49.793Z,40.36
2019-04-23T04:22:32.997Z,40.28
2019-04-23T04:27:34.005Z,40.63
2019-04-23T04:30:01.609Z,41.21
2019-04-23T04:32:17.420Z,41.65
2019-04-23T04:37:40.395Z,42.49
2019-04-23T04:40:07.156Z,42.59
2019-04-23T04:42:30.806Z,41.81
2019-04-23T04:47:36.819Z,42.16
2019-04-23T04:49:59.561Z,42.06
2019-04-23T04:55:03.206Z,41.76
2019-04-23T05:00:13.265Z,42.47
2019-04-23T05:02:53.055Z,42.49
2019-04-23T05:05:29.762Z,42.39
2019-04-23T05:07:39.839Z,42.34
2019-04-23T05:10:21.843Z,41.84
2019-04-23T05:12:36.240Z,42.00
2019-04-23T05:15:23.403Z,42.23
2019-04-23T05:17:59.974Z,41.63
2019-04-23T05:20:28.904Z,42.05
2019-04-23T05:25:25.556Z,42.09
2019-04-23T05:30:33.175Z,41.89
2019-04-23T05:33:09.658Z,41.73
2019-04-23T05:35:59.203Z,41.65
2019-04-23T05:43:08.234Z,41.56
2019-04-23T05:45:49.557Z,41.17
2019-04-23T05:51:10.987Z,41.16
2019-04-23T05:53:39.763Z,40.89
2019-04-23T05:56:17.155Z,40.89
2019-04-23T06:01:42.006Z,41.45
2019-04-23T06:04:09.317Z,40.51
2019-04-23T06:08:59.731Z,40.80
2019-04-23T06:11:37.042Z,40.91
2019-04-23T06:14:06.385Z,41.13
2019-04-23T06:16:36.077Z,40.43
2019-04-23T06:19:11.170Z,40.83
2019-04-23T06:24:15.109Z,41.14
2019-04-23T06:26:39.805Z,40.94
2019-04-23T06:29:16.238Z,41.07
2019-04-23T06:34:12.417Z,40.93
2019-04-23T06:36:38.488Z,40.96
2019-04-23T06:39:10.262Z,40.94
2019-04-23T06:41:44.522Z,40.92
2019-04-23T06:49:23.661Z,40.28
2019-04-23T06:52:06.757Z,39.99
2019-04-23T06:54:27.689Z,40.70
2019-04-23T06:59:24.475Z,39.63
2019-04-23T07:04:38.172Z,39.55
2019-04-23T07:07:25.600Z,38.77
2019-04-23T07:09:26.995Z,38.89
2019-04-23T07:12:07.217Z,38.49
2019-04-23T07:14:44.195Z,38.42
2019-04-23T07:17:23.272Z,39.14
2019-04-23T07:22:14.711Z,39.37
2019-04-23T07:24:45.783Z,38.92
2019-04-23T07:27:14.856Z,39.10
2019-04-23T07:29:40.471Z,38.79
2019-04-23T07:32:13.105Z,38.62
2019-04-23T07:34:50.964Z,38.82
2019-04-23T07:37:32.093Z,38.56
2019-04-23T07:40:09.623Z,37.96
2019-04-23T07:45:19.335Z,37.57
2019-04-23T07:48:11.231Z,37.78
2019-04-23T07:50:39.201Z,37.51
2019-04-23T07:53:13.205Z,36.67
2019-04-23T08:05:55.510Z,34.62
2019-04-23T08:08:14.218Z,34.95
2019-04-23T08:11:23.610Z,35.16
2019-04-23T08:16:10.727Z,34.68
2019-04-23T08:18:36.271Z,35.08
2019-04-23T08:21:06.082Z,34.85
2019-04-23T08:23:55.269Z,35.18
2019-04-23T08:29:12.522Z,34.66
2019-04-23T08:31:43.433Z,35.08
2019-04-23T08:34:23.884Z,34.38
2019-04-23T08:36:48.639Z,35.52
2019-04-23T08:39:14.022Z,35.69
2019-04-23T08:41:57.810Z,35.86
2019-04-23T08:44:21.462Z,35.01
2019-04-23T08:47:03.643Z,35.58
2019-04-23T08:49:29.358Z,35.58
2019-04-23T08:52:00.862Z,35.32
2019-04-23T08:54:45.014Z,35.27
2019-04-23T08:57:04.021Z,35.37
2019-04-23T09:02:18.880Z,35.54
2019-04-23T09:04:45.576Z,34.52
2019-04-23T09:07:12.846Z,34.72
2019-04-23T09:12:12.311Z,33.09
2019-04-23T09:14:42.207Z,32.80
2019-04-23T09:17:10.672Z,33.04
2019-04-23T09:19:56.301Z,33.15
2019-04-23T09:22:28.226Z,32.51
2019-04-23T09:27:23.375Z,33.02
2019-04-23T09:29:58.085Z,32.71
2019-04-23T09:37:37.294Z,31.59
2019-04-23T09:40:09.259Z,31.31
2019-04-23T09:43:00.558Z,30.95
2019-04-23T09:45:28.071Z,30.67
2019-04-23T09:50:36.650Z,30.00
2019-04-23T09:53:09.624Z,29.34
2019-04-23T09:58:07.943Z,30.63
2019-04-23T10:03:01.609Z,30.78
2019-04-23T10:05:28.805Z,31.64
2019-04-23T10:07:58.449Z,31.55
2019-04-23T10:10:20.572Z,31.75
2019-04-23T10:12:50.329Z,31.17
2019-04-23T10:15:25.084Z,32.06
2019-04-23T10:17:52.110Z,32.84
2019-04-23T10:20:22.518Z,32.18
2019-04-23T10:22:52.609Z,33.47
2019-04-23T10:25:22.831Z,33.96
2019-04-23T10:27:58.537Z,33.33
2019-04-23T10:30:23.861Z,33.65
2019-04-23T10:32:55.724Z,34.11
2019-04-23T10:35:35.040Z,33.76
2019-04-23T10:38:02.718Z,33.86
2019-04-23T10:40:33.755Z,33.81
2019-04-23T10:43:00.057Z,32.82
2019-04-23T10:45:47.935Z,33.56
2019-04-23T10:49:05.668Z,34.61
2019-04-23T10:51:26.025Z,33.41
2019-04-23T10:53:56.941Z,32.20
2019-04-23T10:56:27.247Z,33.05
2019-04-23T10:58:54.458Z,33.01
2019-04-23T11:01:27.994Z,32.74
2019-04-23T11:04:10.252Z,32.98
2019-04-23T11:06:33.633Z,33.07
2019-04-23T11:09:07.878Z,33.23
2019-04-23T11:11:40.736Z,33.54
2019-04-23T11:14:13.191Z,33.24
2019-04-23T11:16:58.171Z,32.99
2019-04-23T11:19:32.341Z,33.18
2019-04-23T11:21:46.472Z,33.02
2019-04-23T11:24:20.613Z,32.94
2019-04-23T11:26:48.046Z,33.90
2019-04-23T11:29:19.655Z,34.45
2019-04-23T11:31:58.198Z,33.72
2019-04-23T11:34:34.619Z,34.17
2019-04-23T11:36:55.368Z,35.12
2019-04-23T11:39:27.322Z,34.73
2019-04-23T11:44:28.841Z,34.77
2019-04-23T11:52:03.216Z,33.26
2019-04-23T11:54:23.670Z,33.43
2019-04-23T11:57:24.728Z,33.20
2019-04-23T12:02:23.344Z,32.48
2019-04-23T12:08:11.610Z,33.14
2019-04-23T12:12:54.131Z,34.38
2019-04-23T12:15:32.369Z,33.77
2019-04-23T12:17:59.330Z,33.90
2019-04-23T12:23:19.357Z,33.80
2019-04-23T12:25:36.719Z,33.85
2019-04-23T12:28:08.536Z,33.30
2019-04-23T12:33:11.100Z,34.37
2019-04-23T12:35:40.430Z,34.03
2019-04-23T12:38:22.016Z,34.39
2019-04-23T12:40:49.249Z,34.71
2019-04-23T12:43:14.546Z,34.48
2019-04-23T12:45:57.487Z,34.26
2019-04-23T12:55:50.528Z,33.85
2019-04-23T12:58:24.842Z,33.77
2019-04-23T13:01:02.168Z,32.57
2019-04-23T13:03:29.937Z,32.87
2019-04-23T13:05:50.512Z,33.25
2019-04-23T13:10:57.271Z,32.38
2019-04-23T13:13:39.714Z,31.90
2019-04-23T13:16:28.067Z,32.07
2019-04-23T13:18:38.104Z,30.97
2019-04-23T13:21:17.303Z,30.61
2019-04-23T13:26:05.693Z,30.09
2019-04-23T13:29:01.067Z,29.90
2019-04-23T13:33:58.432Z,30.53
2019-04-23T13:39:02.322Z,30.85
2019-04-23T13:41:23.153Z,30.76
2019-04-23T13:44:06.420Z,31.08
2019-04-23T13:46:22.841Z,30.15
2019-04-23T13:48:58.929Z,29.15
2019-04-23T13:51:27.369Z,29.53
2019-04-23T13:54:24.153Z,30.81
2019-04-23T13:56:46.560Z,29.87
2019-04-23T13:59:06.331Z,29.96
2019-04-23T14:01:32.307Z,30.38
2019-04-23T14:04:16.180Z,29.12
2019-04-23T14:06:43.406Z,29.34
2019-04-23T14:09:19.942Z,29.68
2019-04-23T14:11:45.215Z,29.12
2019-04-23T14:14:36.231Z,30.06
2019-04-23T14:17:00.232Z,29.57
2019-04-23T14:19:26.156Z,29.49
2019-04-23T14:22:13.620Z,29.05
2019-04-23T14:24:38.116Z,29.74
2019-04-23T14:27:08.457Z,29.88
2019-04-23T14:29:39.017Z,29.75
2019-04-23T14:32:10.387Z,30.90
2019-04-23T14:34:34.743Z,30.54
2019-04-23T14:37:16.833Z,30.83
2019-04-23T14:39:40.483Z,30.71
2019-04-23T14:42:20.420Z,31.04
2019-04-23T14:44:41.382Z,31.23
2019-04-23T14:47:27.857Z,30.00
2019-04-23T14:50:18.562Z,30.57
2019-04-23T14:52:50.643Z,31.50
2019-04-23T14:55:38.019Z,31.00
2019-04-23T14:57:35.041Z,31.95
2019-04-23T15:00:01.929Z,32.03
2019-04-23T15:02:39.271Z,32.13
2019-04-23T15:05:09.708Z,31.98
2019-04-23T15:07:37.948Z,31.90
2019-04-23T15:10:10.557Z,31.74
2019-04-23T15:15:14.352Z,31.83
2019-04-23T15:20:09.056Z,32.38
2019-04-23T15:22:50.994Z,32.59
2019-04-23T15:30:03.695Z,32.85
2019-04-23T15:32:56.645Z,33.43
2019-04-23T15:38:14.275Z,32.82
2019-04-23T15:42:58.045Z,32.74
2019-04-23T15:45:24.291Z,32.39
2019-04-23T15:47:56.486Z,31.92
2019-04-23T15:50:43.322Z,32.84
2019-04-23T15:52:58.830Z,32.61
2019-04-23T15:55:43.594Z,32.40
2019-04-23T15:58:09.734Z,32.43
2019-04-23T16:00:24.948Z,32.68
2019-04-23T16:02:32.981Z,32.70
2019-04-23T16:05:03.757Z,32.74
2019-04-23T16:07:53.310Z,31.67
2019-04-23T16:10:43.689Z,32.67
2019-04-23T16:13:29.359Z,32.69
2019-04-23T16:18:22.067Z,33.27
2019-04-23T16:20:50.330Z,32.73
2019-04-23T16:23:17.818Z,33.14
2019-04-23T16:25:44.326Z,33.21
2019-04-23T16:28:18.889Z,33.06
2019-04-23T16:33:18.675Z,34.17
2019-04-23T16:36:05.910Z,34.17
2019-04-23T16:38:47.565Z,33.98
2019-04-23T16:41:07.893Z,34.55
2019-04-23T16:43:44.613Z,34.48
2019-04-23T16:46:09.762Z,35.10
2019-04-23T16:48:47.860Z,35.16
2019-04-23T16:51:16.463Z,34.22
2019-04-23T16:53:29.714Z,34.98
2019-04-23T16:56:16.654Z,35.25
2019-04-23T16:58:44.164Z,35.24
2019-04-23T17:01:22.875Z,34.61
2019-04-23T17:13:50.991Z,36.41
2019-04-23T17:16:23.495Z,36.81
2019-04-23T17:18:54.988Z,37.43
2019-04-23T17:21:18.076Z,37.28
2019-04-23T17:24:14.545Z,37.63
2019-04-23T17:26:26.167Z,37.86
2019-04-23T17:29:00.090Z,38.10
2019-04-23T17:34:12.117Z,38.40
2019-04-23T17:39:18.263Z,38.86
2019-04-23T17:42:27.576Z,38.86
2019-04-23T17:45:02.511Z,39.17
2019-04-23T17:47:21.874Z,39.43
2019-04-23T17:50:03.552Z,39.52
2019-04-23T17:52:21.902Z,40.01
2019-04-23T17:54:56.678Z,39.83
2019-04-23T17:57:26.119Z,40.06
2019-04-23T18:00:09.838Z,40.29
2019-04-23T18:05:04.568Z,40.89
2019-04-23T18:07:43.896Z,40.71
2019-04-23T18:10:11.637Z,40.75
2019-04-23T18:12:39.090Z,41.10
2019-04-23T18:15:02.865Z,41.18
2019-04-23T18:17:55.544Z,41.39
2019-04-23T18:20:10.828Z,41.64
2019-04-23T18:22:47.153Z,41.92
2019-04-23T18:25:25.728Z,41.99
2019-04-23T18:27:54.391Z,41.98
2019-04-23T18:30:27.222Z,41.62
2019-04-23T18:35:34.155Z,41.69
2019-04-23T18:40:58.913Z,41.49
2019-04-23T18:43:30.120Z,41.88
2019-04-23T18:56:11.351Z,43.39
2019-04-23T18:58:52.205Z,43.40
2019-04-23T19:01:29.756Z,43.46
2019-04-23T19:06:30.374Z,44.07
2019-04-23T19:09:09.973Z,44.50
2019-04-23T19:12:09.253Z,44.30
2019-04-23T19:14:30.550Z,44.34
2019-04-23T19:17:24.399Z,44.46
2019-04-23T19:24:28.648Z,44.95
2019-04-23T19:29:39.617Z,46.51
2019-04-23T19:31:58.294Z,46.17
2019-04-23T19:34:35.312Z,46.05
2019-04-23T19:37:15.489Z,45.92
2019-04-23T19:44:44.083Z,47.48
2019-04-23T19:49:48.472Z,46.82
2019-04-23T19:52:38.562Z,47.13
2019-04-23T19:57:15.219Z,46.73
2019-04-23T19:59:59.534Z,46.83
2019-04-23T20:02:33.839Z,47.07
2019-04-23T20:07:25.436Z,47.08
2019-04-23T20:09:51.721Z,46.81
2019-04-23T20:12:25.440Z,46.60
2019-04-23T20:14:52.071Z,46.81
2019-04-23T20:22:33.882Z,46.61
2019-04-23T20:25:18.190Z,46.51
2019-04-23T20:27:26.401Z,46.54
2019-04-23T20:30:23.044Z,46.97
2019-04-23T20:35:35.239Z,47.17
2019-04-23T20:40:23.814Z,47.49
2019-04-23T20:42:46.970Z,47.61
2019-04-23T20:45:43.802Z,48.20
2019-04-23T20:47:52.903Z,48.82
2019-04-23T20:50:16.217Z,49.23
2019-04-23T20:52:49.937Z,49.55
2019-04-23T20:55:25.939Z,48.62
2019-04-23T20:58:03.666Z,49.24
2019-04-23T21:00:56.365Z,49.96
2019-04-23T21:03:31.123Z,50.12
2019-04-23T21:05:41.921Z,50.05
2019-04-23T21:08:30.075Z,50.02
2019-04-23T21:10:58.321Z,49.97
2019-04-23T21:15:52.765Z,51.07
2019-04-23T21:18:32.673Z,51.35
2019-04-23T21:20:59.459Z,51.49
2019-04-23T21:23:28.757Z,51.74
2019-04-23T21:26:02.203Z,51.84
2019-04-23T21:28:37.283Z,52.04
2019-04-23T21:31:19.707Z,52.41
2019-04-23T21:33:43.475Z,52.66
2019-04-23T21:42:04.858Z,52.84
2019-04-23T21:46:58.772Z,53.33
2019-04-23T21:51:57.398Z,53.57
2019-04-23T21:54:29.431Z,53.32
2019-04-23T21:56:53.433Z,53.77
2019-04-23T21:59:30.416Z,54.53
2019-04-23T22:01:58.804Z,54.55
2019-04-23T22:06:59.058Z,54.67
2019-04-23T22:09:46.344Z,55.00
2019-04-23T22:12:09.052Z,55.10
2019-04-23T22:14:50.823Z,55.57
2019-04-23T22:19:44.971Z,55.67
2019-04-23T22:22:10.864Z,55.70
2019-04-23T22:24:48.540Z,55.88
2019-04-23T22:27:16.748Z,55.58
2019-04-23T22:29:43.559Z,55.63
2019-04-23T22:32:20.390Z,55.59
2019-04-23T22:34:46.898Z,55.37
2019-04-23T22:37:23.629Z,56.10
2019-04-23T22:39:54.122Z,55.67
2019-04-23T22:42:41.114Z,55.62
2019-04-23T22:47:33.684Z,55.64
2019-04-23T22:50:11.188Z,55.60
2019-04-23T22:52:48.571Z,55.19
2019-04-23T22:55:07.731Z,55.70
2019-04-23T23:00:14.718Z,57.11
2019-04-23T23:03:01.250Z,57.46
2019-04-23T23:05:29.412Z,57.70
2019-04-23T23:08:04.472Z,58.05
2019-04-23T23:10:20.150Z,58.08
2019-04-23T23:15:26.512Z,59.08
2019-04-23T23:23:05.678Z,59.36
2019-04-23T23:28:06.256Z,59.34
2019-04-23T23:30:42.542Z,59.36
2019-04-23T23:33:05.628Z,58.94
2019-04-23T23:35:34.390Z,58.89
2019-04-23T23:38:08.366Z,59.08
2019-04-23T23:40:35.768Z,59.51
2019-04-23T23:45:45.170Z,60.24
2019-04-23T23:48:13.039Z,60.45
2019-04-23T23:55:51.354Z,60.40
2019-04-23T23:58:25.304Z,60.67
